Nicolas Delmas — C6SF5 — position and weather

sailwx.info

Track history (hours):
 
Tides and Currents Weather Stations Pressure Air Temp Water Temp Dewpoint Dewpoint Depression Visibility Wind Speed Wind Dir Waves Ship Positions

Nicolas Delmas

Last reported at 2018-Apr-17 07:57 UTC. Time now 2018-Apr-21 00:20 UTC.
Position N 36°51' E 012°18'.

Length 196 m; draft 10.6 m.

Type: Ship. MMSI: 311326000.

Date/timePositionNaut miles runAvg speedWind from/ knotsBaromVisibWave heightAir tempDewpointWater temp
2018-Apr-17 07:57N 36°51' E 012°18'918.1
2018-Apr-17 07:26N 36°45' E 012°27'717.2
2018-Apr-17 07:00N 36°41' E 012°35'612.1
2018-Apr-17 06:29N 36°38' E 012°41'711.9
2018-Apr-17 05:55N 36°34' E 012°48'4 9.6
2018-Apr-17 05:30N 36°31' E 012°52'910.5
2018-Apr-17 04:37N 36°26' E 013°02'313.2
2018-Apr-17 04:22N 36°24' E 013°05'3 8.8
2018-Apr-17 04:00N 36°22' E 013°08'611.0
2018-Apr-17 03:29N 36°19' E 013°14'510.9
2018-Apr-17 02:59N 36°16' E 013°20'712.6
2018-Apr-17 02:26N 36°12' E 013°27'511.3
2018-Apr-17 01:59N 36°10' E 013°32'510.8
2018-Apr-17 01:30N 36°06' E 013°37'712.9
2018-Apr-17 01:00N 36°02' E 013°43'612.5
2018-Apr-17 00:29N 35°58' E 013°50'612.4
2018-Apr-17 00:00N 35°55' E 013°56'611.0
2018-Apr-16 23:28N 35°53' E 014°03'510.8
2018-Apr-16 23:00N 35°49' E 014°07'711.6
2018-Apr-16 22:25N 35°45' E 014°14'614.9
2018-Apr-16 22:00N 35°42' E 014°20'4 8.5
2018-Apr-16 21:29N 35°41' E 014°26'611.3
2018-Apr-16 21:00N 35°42' E 014°32'612.1
2018-Apr-16 20:30N 35°48' E 014°34'2 0.0
2018-Apr-14 21:50N 35°49' E 014°32'1 3.1
2018-Apr-14 21:28N 35°49' E 014°34'2 3.0
2018-Apr-14 20:57N 35°48' E 014°35'4 8.1
2018-Apr-14 20:30N 35°48' E 014°40'3 6.3
2018-Apr-14 20:00N 35°50' E 014°43'1 1.1
2018-Apr-14 19:16N 35°50' E 014°43'0 0.1
2018-Apr-14 18:07N 35°50' E 014°43'0 0.2
2018-Apr-14 18:00N 35°50' E 014°43'0 0.0
2018-Apr-14 17:15N 35°50' E 014°43'0 0.0
2018-Apr-14 17:00N 35°50' E 014°43'0 0.0
2018-Apr-14 15:54N 35°50' E 014°43'0 0.1
2018-Apr-14 15:30N 35°50' E 014°43'0 0.1
2018-Apr-14 14:53N 35°50' E 014°43'0 0.0
2018-Apr-14 14:22N 35°50' E 014°43'0 0.0
2018-Apr-14 14:00N 35°50' E 014°43'0 0.1
2018-Apr-14 13:30N 35°50' E 014°43'0 0.0
2018-Apr-14 12:20N 35°50' E 014°43'0 0.1
2018-Apr-14 11:57N 35°50' E 014°43'0 0.0
2018-Apr-14 11:12N 35°50' E 014°43'0 0.2
2018-Apr-14 10:55N 35°50' E 014°43'0 0.1
2018-Apr-14 10:21N 35°50' E 014°43'0 0.0
2018-Apr-14 09:27N 35°50' E 014°43'0 0.1
2018-Apr-14 08:57N 35°50' E 014°43'0 0.0
2018-Apr-14 07:37N 35°50' E 014°43'0 0.1
2018-Apr-14 07:21N 35°50' E 014°43'0 0.0
2018-Apr-14 06:58N 35°50' E 014°43'0 0.0
2018-Apr-14 06:05N 35°50' E 014°43'0 0.5
2018-Apr-14 06:00N 35°50' E 014°43'0 0.1
2018-Apr-14 05:30N 35°50' E 014°43'0 0.1
2018-Apr-14 05:00N 35°50' E 014°43'0 0.1
2018-Apr-14 04:24N 35°50' E 014°43'0 0.0
2018-Apr-14 03:15N 35°50' E 014°43'0 0.0
2018-Apr-14 03:00N 35°50' E 014°43'0 0.1
2018-Apr-14 02:27N 35°50' E 014°43'0 0.0
2018-Apr-14 01:43N 35°50' E 014°43'0 0.0
2018-Apr-14 01:28N 35°50' E 014°43'0 0.0
2018-Apr-14 00:57N 35°50' E 014°43'0 0.0
2018-Apr-14 00:28N 35°50' E 014°43'0 0.0
2018-Apr-13 23:42N 35°50' E 014°43'0 0.1
2018-Apr-13 22:56N 35°50' E 014°43'0 0.0
2018-Apr-13 22:26N 35°50' E 014°43'0 0.0
2018-Apr-13 21:51N 35°50' E 014°43'0 0.1
2018-Apr-13 21:30N 35°50' E 014°43'0 0.0
2018-Apr-13 20:57N 35°50' E 014°43'0 0.1
2018-Apr-13 20:26N 35°50' E 014°43'0 0.1
2018-Apr-13 19:21N 35°50' E 014°43'0 0.1
2018-Apr-13 18:59N 35°50' E 014°43'0 0.1
2018-Apr-13 18:30N 35°50' E 014°43'0 0.1
2018-Apr-13 18:00N 35°50' E 014°43'0 0.0
2018-Apr-13 17:27N 35°50' E 014°43'0 0.0
2018-Apr-13 17:00N 35°50' E 014°43'0 0.0
2018-Apr-13 16:30N 35°50' E 014°43'0 0.0
2018-Apr-13 15:57N 35°50' E 014°43'0 0.0
2018-Apr-13 15:28N 35°50' E 014°43'0 0.0
2018-Apr-13 14:30N 35°50' E 014°43'0 0.0
2018-Apr-13 14:00N 35°50' E 014°43'0 0.0
2018-Apr-13 13:24N 35°50' E 014°43'0 0.0
2018-Apr-13 12:51N 35°50' E 014°43'0 0.1
2018-Apr-13 12:28N 35°50' E 014°43'0 0.0
2018-Apr-13 11:57N 35°50' E 014°43'0 0.0
2018-Apr-13 11:30N 35°50' E 014°43'0 0.0
2018-Apr-13 10:42N 35°50' E 014°43'0 0.0
2018-Apr-13 10:30N 35°50' E 014°43'0 0.0
2018-Apr-13 09:59N 35°50' E 014°43'0 0.0
2018-Apr-13 09:28N 35°50' E 014°43'0 0.0
2018-Apr-13 08:57N 35°50' E 014°43'0 0.0
2018-Apr-13 08:30N 35°50' E 014°43'0 0.0
2018-Apr-13 07:30N 35°50' E 014°43'0 0.0
2018-Apr-13 06:55N 35°50' E 014°43'0 0.0
2018-Apr-13 05:27N 35°51' E 014°43'0 0.0
2018-Apr-13 03:56N 35°50' E 014°43'0 0.0
2018-Apr-13 03:30N 35°50' E 014°43'0 0.0
2018-Apr-13 02:54N 35°50' E 014°43'0 0.0
2018-Apr-13 00:12N 35°50' E 014°43'0 0.1
2018-Apr-12 23:58N 35°50' E 014°43'0 0.0
2018-Apr-12 23:30N 35°50' E 014°43'0 0.0
2018-Apr-12 22:58N 35°50' E 014°43'0 0.1
2018-Apr-12 22:30N 35°50' E 014°43'0 0.0
2018-Apr-12 21:48N 35°50' E 014°43'0 0.1
2018-Apr-12 21:30N 35°50' E 014°43'0 0.0
2018-Apr-12 20:27N 35°50' E 014°43'0 0.0
2018-Apr-12 19:54N 35°50' E 014°43'0 0.1
2018-Apr-12 19:30N 35°50' E 014°43'0 0.1
2018-Apr-12 19:00N 35°50' E 014°43'0 0.1
2018-Apr-12 18:25N 35°50' E 014°43'0 0.0
2018-Apr-12 18:00N 35°50' E 014°43'0 0.1
2018-Apr-12 17:29N 35°50' E 014°43'0 0.0
2018-Apr-12 16:54N 35°50' E 014°43'0 0.0
2018-Apr-12 16:30N 35°50' E 014°43'0 0.1
2018-Apr-12 15:58N 35°50' E 014°43'0 0.0
2018-Apr-12 15:27N 35°50' E 014°43'0 0.0
2018-Apr-12 14:57N 35°50' E 014°43'0 0.0
2018-Apr-12 14:28N 35°50' E 014°43'0 0.0
2018-Apr-12 13:58N 35°50' E 014°43'0 0.0
2018-Apr-12 13:24N 35°50' E 014°43'0 0.0
2018-Apr-12 13:00N 35°50' E 014°43'0 0.0
2018-Apr-12 11:21N 35°51' E 014°43'0 0.0
2018-Apr-12 11:00N 35°51' E 014°43'0 0.0
2018-Apr-12 10:29N 35°51' E 014°43'0 0.0
2018-Apr-12 09:47N 35°51' E 014°43'0 0.0
2018-Apr-12 09:12N 35°51' E 014°43'0 0.0
2018-Apr-12 08:35N 35°51' E 014°43'0 0.0
2018-Apr-12 08:15N 35°51' E 014°43'0 0.1
2018-Apr-12 08:00N 35°51' E 014°43'0 0.0
2018-Apr-12 06:27N 35°51' E 014°43'0 0.0
2018-Apr-12 05:24N 35°50' E 014°43'0 0.0
2018-Apr-12 05:00N 35°50' E 014°43'0 0.0
2018-Apr-12 04:30N 35°50' E 014°43'0 0.0
2018-Apr-12 04:00N 35°50' E 014°43'0 0.0
2018-Apr-12 02:03N 35°51' E 014°43'0 0.1
2018-Apr-12 01:58N 35°51' E 014°43'0 0.0
2018-Apr-12 01:27N 35°51' E 014°43'0 0.0
2018-Apr-12 00:57N 35°51' E 014°43'0 0.0
2018-Apr-11 22:34N 35°50' E 014°43'0 0.0
2018-Apr-11 22:15N 35°50' E 014°43'0 0.0
2018-Apr-11 21:12N 35°50' E 014°43'0 0.0
2018-Apr-11 20:45N 35°51' E 014°43'0 0.0
2018-Apr-11 20:15N 35°50' E 014°43'0 0.0
2018-Apr-11 19:52N 35°50' E 014°43'0 0.0
2018-Apr-11 19:30N 35°50' E 014°43'0 0.0
2018-Apr-11 18:21N 35°50' E 014°43'0 0.1
2018-Apr-11 18:00N 35°50' E 014°43'0 0.0
2018-Apr-11 17:29N 35°50' E 014°43'0 0.0
2018-Apr-11 16:48N 35°50' E 014°43'0 0.0
2018-Apr-11 16:30N 35°50' E 014°43'0 0.1
2018-Apr-11 16:00N 35°51' E 014°43'0 0.0
2018-Apr-11 15:21N 35°50' E 014°43'0 0.0
2018-Apr-11 14:57N 35°50' E 014°43'0 0.1
2018-Apr-11 14:28N 35°51' E 014°43'0 0.0
2018-Apr-11 13:48N 35°51' E 014°43'0 0.1
2018-Apr-11 13:24N 35°51' E 014°43'0 0.1
2018-Apr-11 12:57N 35°51' E 014°43'0 0.1
2018-Apr-11 12:23N 35°51' E 014°43'0 0.0
2018-Apr-11 12:00N 35°51' E 014°43'0 0.1
2018-Apr-11 11:29N 35°50' E 014°43'0 0.0
2018-Apr-11 10:50N 35°50' E 014°43'0 0.1
2018-Apr-11 10:21N 35°51' E 014°43'0 0.1
2018-Apr-11 09:58N 35°51' E 014°43'0 0.2
2018-Apr-11 09:30N 35°50' E 014°43'0 0.2
2018-Apr-11 09:00N 35°51' E 014°43'0 0.2
2018-Apr-11 08:30N 35°51' E 014°43'0 0.0
2018-Apr-11 08:00N 35°50' E 014°43'0 0.0
2018-Apr-11 07:27N 35°51' E 014°43'0 0.2
2018-Apr-11 07:00N 35°50' E 014°43'0 0.3
2018-Apr-11 06:29N 35°51' E 014°43'0 0.1
2018-Apr-11 05:51N 35°51' E 014°43'0 0.0
2018-Apr-11 05:30N 35°51' E 014°43'0 0.1
2018-Apr-11 04:59N 35°51' E 014°43'0 0.0
2018-Apr-11 04:27N 35°51' E 014°43'0 0.0
2018-Apr-11 03:40N 35°51' E 014°43'0 0.1
2018-Apr-11 03:28N 35°51' E 014°43'0 0.1
2018-Apr-11 03:00N 35°51' E 014°43'0 0.1
2018-Apr-11 02:30N 35°51' E 014°43'0 0.0
2018-Apr-11 02:00N 35°51' E 014°43'0 0.1
2018-Apr-11 01:28N 35°51' E 014°43'0 0.0
2018-Apr-11 00:57N 35°51' E 014°43'0 0.1
2018-Apr-11 00:25N 35°51' E 014°43'0 0.0
2018-Apr-10 23:59N 35°51' E 014°43'0 0.0
2018-Apr-10 23:30N 35°51' E 014°43'0 0.0
2018-Apr-10 22:52N 35°51' E 014°43'0 0.1
2018-Apr-10 22:28N 35°51' E 014°43'0 0.0
2018-Apr-10 21:58N 35°51' E 014°43'0 0.0
2018-Apr-10 21:20N 35°51' E 014°43'0 0.6
2018-Apr-10 20:58N 35°50' E 014°43'1610.2
2018-Apr-10 19:26N 35°42' E 014°27'511.3
2018-Apr-10 19:00N 35°41' E 014°21'611.3
2018-Apr-10 18:30N 35°42' E 014°14'713.2
2018-Apr-10 17:59N 35°46' E 014°07'611.6
2018-Apr-10 17:30N 35°49' E 014°02'713.0
2018-Apr-10 16:58N 35°53' E 013°55'612.5
2018-Apr-10 16:29N 35°56' E 013°49'613.0
2018-Apr-10 15:59N 36°00' E 013°42'712.3
2018-Apr-10 15:27N 36°04' E 013°36'713.4
2018-Apr-10 14:57N 36°08' E 013°29'613.2
2018-Apr-10 14:29N 36°11' E 013°22'713.3
2018-Apr-10 13:57N 36°14' E 013°14'715.2
2018-Apr-10 13:29N 36°18' E 013°07'611.8
2018-Apr-10 13:00N 36°21' E 013°01'613.3
2018-Apr-10 12:30N 36°26' E 012°56'914.0
2018-Apr-10 11:52N 36°32' E 012°47'513.3
2018-Apr-10 11:30N 36°34' E 012°42'914.0
2018-Apr-10 10:51N 36°40' E 012°33'514.3
2018-Apr-10 10:30N 36°43' E 012°27'1315.2
2018-Apr-10 09:39N 36°50' E 012°14'211.3
2018-Apr-10 09:29N 36°51' E 012°12'713.8
2018-Apr-10 08:58N 36°55' E 012°05'817.2
2018-Apr-10 08:29N 36°60' E 011°56'612.3
2018-Apr-10 08:00N 37°03' E 011°50'611.7
2018-Apr-10 07:29N 37°06' E 011°44'1315.5
2018-Apr-10 06:39N 37°12' E 011°29'2413.1
2018-Apr-10 04:50N 37°24' E 011°03'2 6.3
2018-Apr-10 04:30N 37°24' E 011°01'713.0
2018-Apr-10 03:57N 37°26' E 010°52'714.9
2018-Apr-10 03:29N 37°28' E 010°43'  
Track history (hours):
 
Tides and Currents Weather Stations Pressure Air Temp Water Temp Dewpoint Dewpoint Depression Visibility Wind Speed Wind Dir Waves Ship Positions

Nicolas Delmas

Last reported at 2018-Apr-17 07:57 UTC. Time now 2018-Apr-21 00:20 UTC.
Position N 36°51' E 012°18'.

Length 196 m; draft 10.6 m.

Type: Ship. MMSI: 311326000.

Date/timePositionNaut miles runAvg speedWind from/ knotsBaromVisibWave heightAir tempDewpointWater temp
2018-Apr-17 07:57N 36°51' E 012°18'918.1
2018-Apr-17 07:26N 36°45' E 012°27'717.2
2018-Apr-17 07:00N 36°41' E 012°35'612.1
2018-Apr-17 06:29N 36°38' E 012°41'711.9
2018-Apr-17 05:55N 36°34' E 012°48'4 9.6
2018-Apr-17 05:30N 36°31' E 012°52'910.5
2018-Apr-17 04:37N 36°26' E 013°02'313.2
2018-Apr-17 04:22N 36°24' E 013°05'3 8.8
2018-Apr-17 04:00N 36°22' E 013°08'611.0
2018-Apr-17 03:29N 36°19' E 013°14'510.9
2018-Apr-17 02:59N 36°16' E 013°20'712.6
2018-Apr-17 02:26N 36°12' E 013°27'511.3
2018-Apr-17 01:59N 36°10' E 013°32'510.8
2018-Apr-17 01:30N 36°06' E 013°37'712.9
2018-Apr-17 01:00N 36°02' E 013°43'612.5
2018-Apr-17 00:29N 35°58' E 013°50'612.4
2018-Apr-17 00:00N 35°55' E 013°56'611.0
2018-Apr-16 23:28N 35°53' E 014°03'510.8
2018-Apr-16 23:00N 35°49' E 014°07'711.6
2018-Apr-16 22:25N 35°45' E 014°14'614.9
2018-Apr-16 22:00N 35°42' E 014°20'4 8.5
2018-Apr-16 21:29N 35°41' E 014°26'611.3
2018-Apr-16 21:00N 35°42' E 014°32'612.1
2018-Apr-16 20:30N 35°48' E 014°34'2 0.0
2018-Apr-14 21:50N 35°49' E 014°32'1 3.1
2018-Apr-14 21:28N 35°49' E 014°34'2 3.0
2018-Apr-14 20:57N 35°48' E 014°35'4 8.1
2018-Apr-14 20:30N 35°48' E 014°40'3 6.3
2018-Apr-14 20:00N 35°50' E 014°43'1 1.1
2018-Apr-14 19:16N 35°50' E 014°43'0 0.1
2018-Apr-14 18:07N 35°50' E 014°43'0 0.2
2018-Apr-14 18:00N 35°50' E 014°43'0 0.0
2018-Apr-14 17:15N 35°50' E 014°43'0 0.0
2018-Apr-14 17:00N 35°50' E 014°43'0 0.0
2018-Apr-14 15:54N 35°50' E 014°43'0 0.1
2018-Apr-14 15:30N 35°50' E 014°43'0 0.1
2018-Apr-14 14:53N 35°50' E 014°43'0 0.0
2018-Apr-14 14:22N 35°50' E 014°43'0 0.0
2018-Apr-14 14:00N 35°50' E 014°43'0 0.1
2018-Apr-14 13:30N 35°50' E 014°43'0 0.0
2018-Apr-14 12:20N 35°50' E 014°43'0 0.1
2018-Apr-14 11:57N 35°50' E 014°43'0 0.0
2018-Apr-14 11:12N 35°50' E 014°43'0 0.2
2018-Apr-14 10:55N 35°50' E 014°43'0 0.1
2018-Apr-14 10:21N 35°50' E 014°43'0 0.0
2018-Apr-14 09:27N 35°50' E 014°43'0 0.1
2018-Apr-14 08:57N 35°50' E 014°43'0 0.0
2018-Apr-14 07:37N 35°50' E 014°43'0 0.1
2018-Apr-14 07:21N 35°50' E 014°43'0 0.0
2018-Apr-14 06:58N 35°50' E 014°43'0 0.0
2018-Apr-14 06:05N 35°50' E 014°43'0 0.5
2018-Apr-14 06:00N 35°50' E 014°43'0 0.1
2018-Apr-14 05:30N 35°50' E 014°43'0 0.1
2018-Apr-14 05:00N 35°50' E 014°43'0 0.1
2018-Apr-14 04:24N 35°50' E 014°43'0 0.0
2018-Apr-14 03:15N 35°50' E 014°43'0 0.0
2018-Apr-14 03:00N 35°50' E 014°43'0 0.1
2018-Apr-14 02:27N 35°50' E 014°43'0 0.0
2018-Apr-14 01:43N 35°50' E 014°43'0 0.0
2018-Apr-14 01:28N 35°50' E 014°43'0 0.0
2018-Apr-14 00:57N 35°50' E 014°43'0 0.0
2018-Apr-14 00:28N 35°50' E 014°43'0 0.0
2018-Apr-13 23:42N 35°50' E 014°43'0 0.1
2018-Apr-13 22:56N 35°50' E 014°43'0 0.0
2018-Apr-13 22:26N 35°50' E 014°43'0 0.0
2018-Apr-13 21:51N 35°50' E 014°43'0 0.1
2018-Apr-13 21:30N 35°50' E 014°43'0 0.0
2018-Apr-13 20:57N 35°50' E 014°43'0 0.1
2018-Apr-13 20:26N 35°50' E 014°43'0 0.1
2018-Apr-13 19:21N 35°50' E 014°43'0 0.1
2018-Apr-13 18:59N 35°50' E 014°43'0 0.1
2018-Apr-13 18:30N 35°50' E 014°43'0 0.1
2018-Apr-13 18:00N 35°50' E 014°43'0 0.0
2018-Apr-13 17:27N 35°50' E 014°43'0 0.0
2018-Apr-13 17:00N 35°50' E 014°43'0 0.0
2018-Apr-13 16:30N 35°50' E 014°43'0 0.0
2018-Apr-13 15:57N 35°50' E 014°43'0 0.0
2018-Apr-13 15:28N 35°50' E 014°43'0 0.0
2018-Apr-13 14:30N 35°50' E 014°43'0 0.0
2018-Apr-13 14:00N 35°50' E 014°43'0 0.0
2018-Apr-13 13:24N 35°50' E 014°43'0 0.0
2018-Apr-13 12:51N 35°50' E 014°43'0 0.1
2018-Apr-13 12:28N 35°50' E 014°43'0 0.0
2018-Apr-13 11:57N 35°50' E 014°43'0 0.0
2018-Apr-13 11:30N 35°50' E 014°43'0 0.0
2018-Apr-13 10:42N 35°50' E 014°43'0 0.0
2018-Apr-13 10:30N 35°50' E 014°43'0 0.0
2018-Apr-13 09:59N 35°50' E 014°43'0 0.0
2018-Apr-13 09:28N 35°50' E 014°43'0 0.0
2018-Apr-13 08:57N 35°50' E 014°43'0 0.0
2018-Apr-13 08:30N 35°50' E 014°43'0 0.0
2018-Apr-13 07:30N 35°50' E 014°43'0 0.0
2018-Apr-13 06:55N 35°50' E 014°43'0 0.0
2018-Apr-13 05:27N 35°51' E 014°43'0 0.0
2018-Apr-13 03:56N 35°50' E 014°43'0 0.0
2018-Apr-13 03:30N 35°50' E 014°43'0 0.0
2018-Apr-13 02:54N 35°50' E 014°43'0 0.0
2018-Apr-13 00:12N 35°50' E 014°43'0 0.1
2018-Apr-12 23:58N 35°50' E 014°43'0 0.0
2018-Apr-12 23:30N 35°50' E 014°43'0 0.0
2018-Apr-12 22:58N 35°50' E 014°43'0 0.1
2018-Apr-12 22:30N 35°50' E 014°43'0 0.0
2018-Apr-12 21:48N 35°50' E 014°43'0 0.1
2018-Apr-12 21:30N 35°50' E 014°43'0 0.0
2018-Apr-12 20:27N 35°50' E 014°43'0 0.0
2018-Apr-12 19:54N 35°50' E 014°43'0 0.1
2018-Apr-12 19:30N 35°50' E 014°43'0 0.1
2018-Apr-12 19:00N 35°50' E 014°43'0 0.1
2018-Apr-12 18:25N 35°50' E 014°43'0 0.0
2018-Apr-12 18:00N 35°50' E 014°43'0 0.1
2018-Apr-12 17:29N 35°50' E 014°43'0 0.0
2018-Apr-12 16:54N 35°50' E 014°43'0 0.0
2018-Apr-12 16:30N 35°50' E 014°43'0 0.1
2018-Apr-12 15:58N 35°50' E 014°43'0 0.0
2018-Apr-12 15:27N 35°50' E 014°43'0 0.0
2018-Apr-12 14:57N 35°50' E 014°43'0 0.0
2018-Apr-12 14:28N 35°50' E 014°43'0 0.0
2018-Apr-12 13:58N 35°50' E 014°43'0 0.0
2018-Apr-12 13:24N 35°50' E 014°43'0 0.0
2018-Apr-12 13:00N 35°50' E 014°43'0 0.0
2018-Apr-12 11:21N 35°51' E 014°43'0 0.0
2018-Apr-12 11:00N 35°51' E 014°43'0 0.0
2018-Apr-12 10:29N 35°51' E 014°43'0 0.0
2018-Apr-12 09:47N 35°51' E 014°43'0 0.0
2018-Apr-12 09:12N 35°51' E 014°43'0 0.0
2018-Apr-12 08:35N 35°51' E 014°43'0 0.0
2018-Apr-12 08:15N 35°51' E 014°43'0 0.1
2018-Apr-12 08:00N 35°51' E 014°43'0 0.0
2018-Apr-12 06:27N 35°51' E 014°43'0 0.0
2018-Apr-12 05:24N 35°50' E 014°43'0 0.0
2018-Apr-12 05:00N 35°50' E 014°43'0 0.0
2018-Apr-12 04:30N 35°50' E 014°43'0 0.0
2018-Apr-12 04:00N 35°50' E 014°43'0 0.0
2018-Apr-12 02:03N 35°51' E 014°43'0 0.1
2018-Apr-12 01:58N 35°51' E 014°43'0 0.0
2018-Apr-12 01:27N 35°51' E 014°43'0 0.0
2018-Apr-12 00:57N 35°51' E 014°43'0 0.0
2018-Apr-11 22:34N 35°50' E 014°43'0 0.0
2018-Apr-11 22:15N 35°50' E 014°43'0 0.0
2018-Apr-11 21:12N 35°50' E 014°43'0 0.0
2018-Apr-11 20:45N 35°51' E 014°43'0 0.0
2018-Apr-11 20:15N 35°50' E 014°43'0 0.0
2018-Apr-11 19:52N 35°50' E 014°43'0 0.0
2018-Apr-11 19:30N 35°50' E 014°43'0 0.0
2018-Apr-11 18:21N 35°50' E 014°43'0 0.1
2018-Apr-11 18:00N 35°50' E 014°43'0 0.0
2018-Apr-11 17:29N 35°50' E 014°43'0 0.0
2018-Apr-11 16:48N 35°50' E 014°43'0 0.0
2018-Apr-11 16:30N 35°50' E 014°43'0 0.1
2018-Apr-11 16:00N 35°51' E 014°43'0 0.0
2018-Apr-11 15:21N 35°50' E 014°43'0 0.0
2018-Apr-11 14:57N 35°50' E 014°43'0 0.1
2018-Apr-11 14:28N 35°51' E 014°43'0 0.0
2018-Apr-11 13:48N 35°51' E 014°43'0 0.1
2018-Apr-11 13:24N 35°51' E 014°43'0 0.1
2018-Apr-11 12:57N 35°51' E 014°43'0 0.1
2018-Apr-11 12:23N 35°51' E 014°43'0 0.0
2018-Apr-11 12:00N 35°51' E 014°43'0 0.1
2018-Apr-11 11:29N 35°50' E 014°43'0 0.0
2018-Apr-11 10:50N 35°50' E 014°43'0 0.1
2018-Apr-11 10:21N 35°51' E 014°43'0 0.1
2018-Apr-11 09:58N 35°51' E 014°43'0 0.2
2018-Apr-11 09:30N 35°50' E 014°43'0 0.2
2018-Apr-11 09:00N 35°51' E 014°43'0 0.2
2018-Apr-11 08:30N 35°51' E 014°43'0 0.0
2018-Apr-11 08:00N 35°50' E 014°43'0 0.0
2018-Apr-11 07:27N 35°51' E 014°43'0 0.2
2018-Apr-11 07:00N 35°50' E 014°43'0 0.3
2018-Apr-11 06:29N 35°51' E 014°43'0 0.1
2018-Apr-11 05:51N 35°51' E 014°43'0 0.0
2018-Apr-11 05:30N 35°51' E 014°43'0 0.1
2018-Apr-11 04:59N 35°51' E 014°43'0 0.0
2018-Apr-11 04:27N 35°51' E 014°43'0 0.0
2018-Apr-11 03:40N 35°51' E 014°43'0 0.1
2018-Apr-11 03:28N 35°51' E 014°43'0 0.1
2018-Apr-11 03:00N 35°51' E 014°43'0 0.1
2018-Apr-11 02:30N 35°51' E 014°43'0 0.0
2018-Apr-11 02:00N 35°51' E 014°43'0 0.1
2018-Apr-11 01:28N 35°51' E 014°43'0 0.0
2018-Apr-11 00:57N 35°51' E 014°43'0 0.1
2018-Apr-11 00:25N 35°51' E 014°43'0 0.0
2018-Apr-10 23:59N 35°51' E 014°43'0 0.0
2018-Apr-10 23:30N 35°51' E 014°43'0 0.0
2018-Apr-10 22:52N 35°51' E 014°43'0 0.1
2018-Apr-10 22:28N 35°51' E 014°43'0 0.0
2018-Apr-10 21:58N 35°51' E 014°43'0 0.0
2018-Apr-10 21:20N 35°51' E 014°43'0 0.6
2018-Apr-10 20:58N 35°50' E 014°43'1610.2
2018-Apr-10 19:26N 35°42' E 014°27'511.3
2018-Apr-10 19:00N 35°41' E 014°21'611.3
2018-Apr-10 18:30N 35°42' E 014°14'713.2
2018-Apr-10 17:59N 35°46' E 014°07'611.6
2018-Apr-10 17:30N 35°49' E 014°02'713.0
2018-Apr-10 16:58N 35°53' E 013°55'612.5
2018-Apr-10 16:29N 35°56' E 013°49'613.0
2018-Apr-10 15:59N 36°00' E 013°42'712.3
2018-Apr-10 15:27N 36°04' E 013°36'713.4
2018-Apr-10 14:57N 36°08' E 013°29'613.2
2018-Apr-10 14:29N 36°11' E 013°22'713.3
2018-Apr-10 13:57N 36°14' E 013°14'715.2
2018-Apr-10 13:29N 36°18' E 013°07'611.8
2018-Apr-10 13:00N 36°21' E 013°01'613.3
2018-Apr-10 12:30N 36°26' E 012°56'914.0
2018-Apr-10 11:52N 36°32' E 012°47'513.3
2018-Apr-10 11:30N 36°34' E 012°42'914.0
2018-Apr-10 10:51N 36°40' E 012°33'514.3
2018-Apr-10 10:30N 36°43' E 012°27'1315.2
2018-Apr-10 09:39N 36°50' E 012°14'211.3
2018-Apr-10 09:29N 36°51' E 012°12'713.8
2018-Apr-10 08:58N 36°55' E 012°05'817.2
2018-Apr-10 08:29N 36°60' E 011°56'612.3
2018-Apr-10 08:00N 37°03' E 011°50'611.7
2018-Apr-10 07:29N 37°06' E 011°44'1315.5
2018-Apr-10 06:39N 37°12' E 011°29'2413.1
2018-Apr-10 04:50N 37°24' E 011°03'2 6.3
2018-Apr-10 04:30N 37°24' E 011°01'713.0
2018-Apr-10 03:57N 37°26' E 010°52'714.9
2018-Apr-10 03:29N 37°28' E 010°43'  

Dump ship's entire track history